Time;durP1;ratioP1;P1;durP2;ratioP2;P2;SDS_P1;SDS_P2;PMS_P1;PMS_P2;Temp;Humidity;BMP_temperature;BMP_pressure;BME280_temperature;BME280_humidity;BME280_pressure;Samples;Min_cycle;Max_cycle;Signal;HPM_P1;HPM_P2
2023/09/13 00:01:08;;;;;;;5.63;3.25;;;;;;;12.55;73.83;101518.00;5050837;28;20065;-50
2023/09/13 00:03:35;;;;;;;7.15;2.60;;;;;;;12.52;73.89;101521.47;5049915;28;20045;-49
2023/09/13 00:06:02;;;;;;;9.48;3.13;;;;;;;12.49;73.89;101513.84;5050435;28;20037;-47
2023/09/13 00:08:29;;;;;;;8.20;3.00;;;;;;;12.46;73.89;101508.97;5050389;28;20056;-47
2023/09/13 00:11:02;;;;;;;4.75;2.63;;;;;;;12.45;74.16;101510.09;5050545;28;20060;-45
2023/09/13 00:13:29;;;;;;;8.43;2.88;;;;;;;12.44;74.19;101519.59;5050301;28;20044;-47
2023/09/13 00:15:56;;;;;;;7.07;2.45;;;;;;;12.40;74.40;101513.09;5050193;28;20045;-46
2023/09/13 00:18:23;;;;;;;5.78;2.17;;;;;;;12.39;74.40;101514.22;5046780;28;20067;-46
2023/09/13 00:20:53;;;;;;;8.82;3.00;;;;;;;12.35;74.42;101520.81;5048931;28;20159;-48
2023/09/13 00:23:20;;;;;;;5.22;2.63;;;;;;;12.31;74.57;101520.66;5049677;28;20491;-46
2023/09/13 00:25:47;;;;;;;6.03;2.80;;;;;;;12.30;74.48;101527.38;5054134;28;20111;-47
2023/09/13 00:28:14;;;;;;;6.65;3.05;;;;;;;12.33;74.51;101531.44;5053283;28;20540;-46
2023/09/13 00:30:40;;;;;;;6.20;3.30;;;;;;;12.32;74.46;101522.28;5053952;28;20083;-46
2023/09/13 00:33:07;;;;;;;7.43;2.70;;;;;;;12.31;74.46;101519.88;5052365;28;20049;-48
2023/09/13 00:35:35;;;;;;;4.82;2.90;;;;;;;12.29;74.44;101525.75;5052980;28;20044;-49
2023/09/13 00:38:03;;;;;;;4.95;2.78;;;;;;;12.25;74.57;101516.47;5052314;28;20048;-46
2023/09/13 00:40:29;;;;;;;8.45;3.78;;;;;;;12.21;74.74;101523.84;5053646;28;20079;-46
2023/09/13 00:42:56;;;;;;;5.43;3.38;;;;;;;12.24;74.58;101520.38;5053717;28;20111;-48
2023/09/13 00:45:23;;;;;;;7.30;2.88;;;;;;;12.27;74.50;101525.28;5053739;28;20068;-48
2023/09/13 00:47:49;;;;;;;5.60;2.58;;;;;;;12.25;74.58;101532.31;5040160;28;20103;-48
2023/09/13 00:50:18;;;;;;;6.90;3.03;;;;;;;12.19;74.58;101526.16;5052215;28;20084;-47
2023/09/13 00:52:46;;;;;;;6.90;2.78;;;;;;;12.13;74.70;101513.59;5051920;28;20469;-48
2023/09/13 00:55:16;;;;;;;7.35;2.92;;;;;;;12.08;74.93;101508.25;5053361;28;20131;-49
2023/09/13 00:57:44;;;;;;;13.30;5.20;;;;;;;12.04;74.89;101510.09;5041129;28;20091;-46
2023/09/13 01:00:12;;;;;;;6.28;3.20;;;;;;;11.98;75.08;101512.25;5051624;28;20053;-47
2023/09/13 01:02:40;;;;;;;5.13;3.25;;;;;;;11.94;75.33;101508.50;5053219;28;20128;-47
2023/09/13 01:05:13;;;;;;;4.93;2.97;;;;;;;11.89;75.38;101505.09;5052867;28;20063;-48
2023/09/13 01:07:41;;;;;;;7.40;3.42;;;;;;;11.84;75.51;101508.88;5051778;28;20036;-48
2023/09/13 01:10:09;;;;;;;9.18;3.58;;;;;;;11.82;75.59;101502.88;5053575;28;20160;-46
2023/09/13 01:12:37;;;;;;;6.65;3.28;;;;;;;11.83;75.76;101512.84;5053198;28;20033;-46
2023/09/13 01:15:08;;;;;;;6.25;3.30;;;;;;;11.80;75.68;101512.69;5051685;28;20051;-46
2023/09/13 01:17:56;;;;;;;6.20;2.65;;;;;;;11.73;75.83;101520.72;5052094;28;20471;-49
2023/09/13 01:20:30;;;;;;;6.90;3.15;;;;;;;11.71;75.88;101517.44;5049121;28;20049;-50
2023/09/13 01:23:17;;;;;;;5.03;3.25;;;;;;;11.67;76.04;101522.03;5051459;28;20049;-48
2023/09/13 01:25:50;;;;;;;5.72;3.60;;;;;;;11.61;76.34;101513.88;5053752;28;20139;-46
2023/09/13 01:28:44;;;;;;;4.30;2.72;;;;;;;11.61;76.41;101518.63;5051810;28;20090;-47
2023/09/13 01:31:13;;;;;;;7.93;3.40;;;;;;;11.63;76.11;101513.53;5052769;28;20498;-48
2023/09/13 01:33:40;;;;;;;7.65;3.00;;;;;;;11.67;76.09;101519.25;5052842;28;20068;-47
2023/09/13 01:36:07;;;;;;;6.35;2.90;;;;;;;11.68;76.02;101516.13;5052155;28;20520;-46
2023/09/13 01:38:34;;;;;;;5.93;2.90;;;;;;;11.66;75.93;101520.38;5050598;28;20490;-48
2023/09/13 01:41:13;;;;;;;6.57;3.85;;;;;;;11.65;76.21;101525.09;5050882;28;20550;-47
2023/09/13 01:43:41;;;;;;;5.80;3.63;;;;;;;11.64;76.01;101512.41;5052698;28;20072;-48
2023/09/13 01:46:11;;;;;;;6.50;3.47;;;;;;;11.60;76.28;101520.56;5051131;28;20047;-47
2023/09/13 01:48:39;;;;;;;6.35;4.18;;;;;;;11.59;76.37;101520.91;5052774;28;20056;-46
2023/09/13 01:51:06;;;;;;;16.30;5.70;;;;;;;11.59;76.37;101518.97;5049107;28;20102;-46
2023/09/13 01:53:43;;;;;;;8.10;3.72;;;;;;;11.62;76.41;101521.03;5052556;28;20430;-47
2023/09/13 01:56:10;;;;;;;7.03;3.53;;;;;;;11.63;75.99;101519.91;5051905;28;20106;-46
2023/09/13 01:58:37;;;;;;;4.65;3.08;;;;;;;11.58;76.07;101520.09;5051943;28;20567;-48
2023/09/13 02:01:04;;;;;;;8.25;3.60;;;;;;;11.51;76.17;101514.25;5052800;28;20049;-47
2023/09/13 02:03:30;;;;;;;11.68;4.45;;;;;;;11.52;76.33;101515.06;5052526;28;20048;-46
2023/09/13 02:05:58;;;;;;;8.07;4.05;;;;;;;11.47;76.29;101518.84;5042319;28;20052;-47
2023/09/13 02:08:24;;;;;;;5.88;3.75;;;;;;;11.43;76.48;101517.06;5046906;28;20084;-46
2023/09/13 02:10:51;;;;;;;10.60;4.90;;;;;;;11.38;76.76;101534.72;5049136;28;20110;-47
2023/09/13 02:13:18;;;;;;;8.15;3.65;;;;;;;11.32;76.86;101536.03;5051422;28;20060;-46
2023/09/13 02:15:44;;;;;;;5.60;3.08;;;;;;;11.29;77.00;101541.41;5052187;28;20055;-46
2023/09/13 02:18:11;;;;;;;5.63;3.85;;;;;;;11.28;77.28;101539.78;5051622;28;20506;-50
2023/09/13 02:20:38;;;;;;;4.38;3.08;;;;;;;11.26;77.04;101533.75;5051766;28;20049;-48
2023/09/13 02:23:06;;;;;;;7.30;4.10;;;;;;;11.21;77.34;101531.97;5051690;28;20498;-46
2023/09/13 02:25:38;;;;;;;8.13;3.05;;;;;;;11.16;77.51;101540.47;5050665;28;20493;-47
2023/09/13 02:28:05;;;;;;;8.77;3.58;;;;;;;11.15;77.61;101540.78;5051631;28;20045;-46
2023/09/13 02:30:35;;;;;;;5.22;3.42;;;;;;;11.10;77.65;101541.78;5051863;28;20053;-49
2023/09/13 02:33:02;;;;;;;6.00;3.47;;;;;;;11.06;77.64;101546.34;5048990;28;20083;-46
2023/09/13 02:35:30;;;;;;;3.85;2.40;;;;;;;11.07;78.07;101542.44;5050519;28;20045;-49
2023/09/13 02:37:57;;;;;;;6.28;3.33;;;;;;;11.09;77.87;101540.16;5048713;28;20045;-47
2023/09/13 02:40:24;;;;;;;6.72;3.92;;;;;;;11.12;77.83;101536.72;5051613;28;20128;-47
2023/09/13 02:42:53;;;;;;;8.48;3.38;;;;;;;11.06;77.84;101529.72;5050455;28;20629;-48
2023/09/13 02:45:20;;;;;;;5.90;3.47;;;;;;;10.99;77.98;101534.94;5051480;28;20155;-46
2023/09/13 02:47:47;;;;;;;6.65;3.67;;;;;;;10.96;78.16;101530.09;5049895;28;20044;-49
2023/09/13 02:50:14;;;;;;;5.95;3.47;;;;;;;10.93;78.43;101519.66;5051226;28;20041;-47
2023/09/13 02:52:41;;;;;;;9.85;3.38;;;;;;;10.90;78.30;101520.31;5063591;28;20183;-47
2023/09/13 02:55:08;;;;;;;5.57;3.40;;;;;;;10.86;78.58;101528.44;5051373;28;20052;-46
2023/09/13 02:57:35;;;;;;;7.22;3.90;;;;;;;10.83;78.52;101528.28;5048917;28;20497;-47
2023/09/13 03:00:05;;;;;;;5.10;3.35;;;;;;;10.84;78.96;101525.19;5048443;28;20106;-46
2023/09/13 03:02:32;;;;;;;8.48;4.30;;;;;;;10.86;78.78;101520.13;5070185;22;20053;-47
2023/09/13 03:04:59;;;;;;;5.57;3.42;;;;;;;10.88;78.70;101528.13;5051505;28;20051;-46
2023/09/13 03:07:27;;;;;;;4.60;3.20;;;;;;;10.93;78.48;101525.19;5050936;28;20056;-49
2023/09/13 03:09:57;;;;;;;5.97;3.15;;;;;;;10.93;78.44;101525.19;5051231;28;20132;-46
2023/09/13 03:12:24;;;;;;;7.25;3.72;;;;;;;10.91;78.35;101521.91;5038953;28;20402;-44
2023/09/13 03:14:51;;;;;;;7.78;3.53;;;;;;;10.86;78.34;101519.31;5050871;28;20045;-45
2023/09/13 03:17:17;;;;;;;5.00;2.97;;;;;;;10.85;78.46;101524.06;5051075;28;20102;-44
2023/09/13 03:19:44;;;;;;;7.43;2.70;;;;;;;10.82;78.67;101518.38;5050732;28;20049;-44
2023/09/13 03:22:11;;;;;;;5.22;2.80;;;;;;;10.79;78.79;101513.47;5050839;28;20044;-45
2023/09/13 03:24:38;;;;;;;5.70;3.17;;;;;;;10.73;79.08;101507.28;5046500;28;20083;-44
2023/09/13 03:27:04;;;;;;;7.18;3.30;;;;;;;10.70;79.08;101499.63;5039214;28;20075;-47
2023/09/13 03:29:32;;;;;;;4.72;2.72;;;;;;;10.69;79.38;101511.03;5045202;28;20034;-45
2023/09/13 03:31:59;;;;;;;6.03;3.05;;;;;;;10.62;79.33;101505.16;5049843;28;20049;-45
2023/09/13 03:34:26;;;;;;;14.00;5.45;;;;;;;10.57;79.63;101506.16;5050725;28;20049;-45
2023/09/13 03:36:54;;;;;;;9.50;3.63;;;;;;;10.53;79.57;101507.16;5051149;28;20045;-44
2023/09/13 03:39:20;;;;;;;6.55;3.20;;;;;;;10.48;79.75;101499.00;5050843;28;20148;-45
2023/09/13 03:41:47;;;;;;;11.52;3.78;;;;;;;10.49;80.03;101493.13;5045193;28;20072;-45
2023/09/13 03:44:14;;;;;;;6.03;2.72;;;;;;;10.49;79.93;101482.06;5050746;28;20047;-44
2023/09/13 03:46:41;;;;;;;5.85;3.88;;;;;;;10.48;79.74;101485.16;5039151;28;20045;-44
2023/09/13 03:49:08;;;;;;;6.32;3.15;;;;;;;10.46;79.92;101477.16;5047388;28;20055;-45
2023/09/13 03:51:35;;;;;;;12.57;3.92;;;;;;;10.44;79.60;101478.63;5048121;28;20051;-44
2023/09/13 03:54:01;;;;;;;9.73;3.05;;;;;;;10.42;79.86;101475.38;5050687;28;20398;-44
2023/09/13 03:56:28;;;;;;;7.45;4.03;;;;;;;10.40;79.96;101467.44;5050356;28;20048;-46
2023/09/13 03:58:55;;;;;;;7.10;3.13;;;;;;;10.38;80.20;101469.69;5053397;28;20063;-45
2023/09/13 04:01:22;;;;;;;6.53;3.60;;;;;;;10.39;80.09;101472.16;5054112;28;20065;-46
2023/09/13 04:03:49;;;;;;;6.65;5.18;;;;;;;10.39;80.19;101474.09;5054396;28;20444;-46
2023/09/13 04:06:16;;;;;;;5.65;3.50;;;;;;;10.35;80.18;101476.69;5051643;28;20098;-46
2023/09/13 04:08:43;;;;;;;4.88;3.53;;;;;;;10.33;80.29;101476.19;5053858;28;20494;-46
2023/09/13 04:11:09;;;;;;;5.15;3.42;;;;;;;10.32;80.42;101471.84;5053776;28;20053;-45
2023/09/13 04:13:36;;;;;;;7.53;3.25;;;;;;;10.33;80.43;101481.75;5054106;28;20102;-45
2023/09/13 04:16:06;;;;;;;9.32;3.15;;;;;;;10.35;80.59;101476.69;5054657;28;20048;-44
2023/09/13 04:18:33;;;;;;;6.50;3.20;;;;;;;10.36;80.38;101472.78;5052861;28;20041;-45
2023/09/13 04:21:00;;;;;;;8.82;3.20;;;;;;;10.35;80.59;101482.22;5053352;28;20560;-45
2023/09/13 04:23:28;;;;;;;5.93;3.65;;;;;;;10.33;80.61;101472.63;5053509;28;20037;-45
2023/09/13 04:25:55;;;;;;;5.40;3.13;;;;;;;10.33;80.81;101473.44;5054363;28;20095;-44
2023/09/13 04:28:22;;;;;;;7.13;4.13;;;;;;;10.34;80.63;101471.50;5053807;28;20136;-45
2023/09/13 04:30:49;;;;;;;8.25;3.28;;;;;;;10.33;80.70;101467.91;5053890;28;20060;-44
2023/09/13 04:33:15;;;;;;;5.47;3.40;;;;;;;10.29;81.01;101469.72;5054477;28;20047;-45
2023/09/13 04:35:42;;;;;;;6.28;3.60;;;;;;;10.29;80.92;101469.72;5053688;28;20044;-47
2023/09/13 04:38:09;;;;;;;8.10;3.80;;;;;;;10.31;80.75;101463.84;5053779;28;20040;-47
2023/09/13 04:40:41;;;;;;;6.60;3.28;;;;;;;10.30;80.77;101465.78;5053767;28;20550;-45
2023/09/13 04:43:08;;;;;;;7.03;3.33;;;;;;;10.29;80.84;101471.66;5053601;28;20457;-45
2023/09/13 04:45:34;;;;;;;5.50;3.03;;;;;;;10.27;81.04;101469.19;5052708;28;20051;-47
2023/09/13 04:48:01;;;;;;;4.45;3.22;;;;;;;10.30;81.16;101463.00;5053562;28;20059;-44
2023/09/13 04:50:28;;;;;;;8.27;4.35;;;;;;;10.30;81.22;101454.72;5053848;28;20083;-45
2023/09/13 04:52:55;;;;;;;6.78;4.00;;;;;;;10.32;81.17;101460.75;5053775;28;20049;-47
2023/09/13 04:55:23;;;;;;;8.30;3.60;;;;;;;10.39;81.16;101460.25;5053230;28;20049;-46
2023/09/13 04:57:50;;;;;;;5.18;2.90;;;;;;;10.41;80.94;101452.44;5053223;28;20041;-45
2023/09/13 05:00:17;;;;;;;8.13;3.42;;;;;;;10.42;81.02;101454.06;5053450;28;20516;-45
2023/09/13 05:02:44;;;;;;;8.15;3.92;;;;;;;10.44;80.94;101451.78;5053086;28;20445;-48
2023/09/13 05:05:11;;;;;;;9.50;4.32;;;;;;;10.45;80.77;101452.59;5053248;28;20151;-48
2023/09/13 05:07:38;;;;;;;6.60;4.07;;;;;;;10.45;80.81;101458.13;5054029;28;20052;-46
2023/09/13 05:10:05;;;;;;;12.18;5.28;;;;;;;10.42;81.03;101453.25;5052126;28;20044;-49
2023/09/13 05:12:31;;;;;;;9.00;5.85;;;;;;;10.42;81.03;101458.78;5053262;28;20504;-45
2023/09/13 05:14:58;;;;;;;12.35;4.80;;;;;;;10.43;80.90;101460.41;5052140;28;20405;-45
2023/09/13 05:17:25;;;;;;;10.95;4.47;;;;;;;10.43;81.12;101460.41;5052965;28;20072;-54
2023/09/13 05:19:52;;;;;;;9.43;5.22;;;;;;;10.43;81.09;101465.97;5052528;28;20503;-45
2023/09/13 05:22:18;;;;;;;11.32;5.97;;;;;;;10.44;81.23;101453.72;5053246;28;20173;-48
2023/09/13 05:24:45;;;;;;;8.15;4.72;;;;;;;10.41;81.23;101457.97;5053369;28;20049;-44
2023/09/13 05:27:12;;;;;;;12.32;5.63;;;;;;;10.38;81.26;101458.59;5053186;28;20071;-46
2023/09/13 05:29:38;;;;;;;6.90;4.18;;;;;;;10.33;81.32;101472.63;5052834;28;20069;-45
2023/09/13 05:32:05;;;;;;;10.10;4.57;;;;;;;10.28;81.48;101465.31;5052986;28;20091;-46
2023/09/13 05:34:32;;;;;;;8.00;4.22;;;;;;;10.24;81.82;101461.56;5052941;28;20051;-44
2023/09/13 05:36:59;;;;;;;8.70;4.57;;;;;;;10.20;81.89;101462.53;5052571;28;20055;-47
2023/09/13 05:39:26;;;;;;;6.65;4.15;;;;;;;10.17;82.19;101458.47;5052471;28;20131;-46
2023/09/13 05:41:55;;;;;;;9.63;4.40;;;;;;;10.17;82.17;101461.22;5045368;28;20479;-45
2023/09/13 05:44:24;;;;;;;9.60;4.10;;;;;;;10.18;82.13;101475.88;5049903;28;20041;-45
2023/09/13 05:46:54;;;;;;;7.68;3.30;;;;;;;10.15;82.23;101459.91;5052662;28;20053;-46
2023/09/13 05:49:21;;;;;;;8.63;3.60;;;;;;;10.14;82.28;101459.09;5051072;28;20051;-45
2023/09/13 05:51:49;;;;;;;4.82;3.53;;;;;;;10.12;82.47;101455.84;5052455;28;20490;-45
2023/09/13 05:54:18;;;;;;;8.90;3.70;;;;;;;10.10;82.48;101462.81;5052389;28;20570;-44
2023/09/13 05:56:45;;;;;;;10.13;3.65;;;;;;;10.12;82.65;101469.69;5052082;28;20049;-46
2023/09/13 05:59:12;;;;;;;7.97;3.42;;;;;;;10.10;82.58;101463.63;5047165;28;20041;-46
2023/09/13 06:01:39;;;;;;;6.90;4.00;;;;;;;10.10;82.88;101462.81;5052234;28;20418;-45
2023/09/13 06:04:07;;;;;;;8.38;3.72;;;;;;;10.08;82.64;101465.94;5052018;28;20087;-46
2023/09/13 06:06:35;;;;;;;7.93;4.15;;;;;;;10.08;82.88;101468.69;5052136;28;20045;-45
2023/09/13 06:09:03;;;;;;;14.63;4.85;;;;;;;10.13;82.86;101467.75;5051460;28;20491;-47
2023/09/13 06:11:31;;;;;;;5.75;3.67;;;;;;;10.17;82.45;101474.25;5051790;28;20045;-44
2023/09/13 06:13:58;;;;;;;11.38;4.32;;;;;;;10.17;82.80;101480.59;5052416;28;20125;-47
2023/09/13 06:16:25;;;;;;;10.10;3.80;;;;;;;10.20;82.77;101479.94;5051740;28;20061;-48
2023/09/13 06:18:52;;;;;;;5.70;3.60;;;;;;;10.20;82.87;101482.72;5052362;28;20098;-44
2023/09/13 06:21:19;;;;;;;6.10;3.78;;;;;;;10.24;82.95;101492.00;5050886;28;20057;-44
2023/09/13 06:23:47;;;;;;;7.00;3.78;;;;;;;10.30;82.90;101490.69;5052016;28;20099;-46
2023/09/13 06:26:14;;;;;;;7.13;3.50;;;;;;;10.31;82.92;101499.81;5051432;28;20041;-49
2023/09/13 06:28:41;;;;;;;8.85;4.18;;;;;;;10.32;82.95;101498.69;5050250;28;20132;-46
2023/09/13 06:31:08;;;;;;;8.48;5.00;;;;;;;10.34;83.00;101496.41;5049025;28;20056;-48
2023/09/13 06:33:52;;;;;;;6.55;4.32;;;;;;;10.40;82.96;101493.13;5052203;28;20410;-45
2023/09/13 06:36:20;;;;;;;10.18;4.28;;;;;;;10.45;82.89;101505.19;5051452;28;20049;-46
2023/09/13 06:38:47;;;;;;;12.70;5.03;;;;;;;10.49;82.90;101506.97;5050828;28;20479;-45
2023/09/13 06:41:15;;;;;;;7.90;4.25;;;;;;;10.54;82.80;101508.78;5047777;28;20045;-47
2023/09/13 06:43:44;;;;;;;8.38;4.38;;;;;;;10.60;82.73;101510.22;5051463;28;20483;-48
2023/09/13 06:46:30;;;;;;;10.18;5.00;;;;;;;10.62;82.71;101508.75;5039946;28;20045;-45
2023/09/13 06:48:59;;;;;;;7.35;4.05;;;;;;;10.65;82.86;101512.81;5050936;28;20432;-44
2023/09/13 06:51:28;;;;;;;10.98;4.40;;;;;;;10.65;82.97;101502.56;5050768;28;20045;-44
2023/09/13 06:53:58;;;;;;;8.55;4.60;;;;;;;10.68;83.03;101501.91;5049792;28;20045;-44
2023/09/13 06:56:28;;;;;;;8.82;5.00;;;;;;;10.72;83.15;101502.88;5051228;28;20037;-45
2023/09/13 06:58:59;;;;;;;7.50;4.15;;;;;;;10.77;83.30;101513.00;5051265;28;20565;-46
2023/09/13 07:01:29;;;;;;;11.23;4.88;;;;;;;10.87;83.20;101512.66;5051179;28;20138;-45
2023/09/13 07:03:59;;;;;;;7.32;4.88;;;;;;;10.97;83.36;101512.28;5047445;28;20059;-47
2023/09/13 07:06:34;;;;;;;10.15;4.78;;;;;;;11.08;83.25;101512.75;5057936;28;20855;-46
2023/09/13 07:09:02;;;;;;;7.25;4.40;;;;;;;11.20;83.26;101515.69;5049903;28;20060;-46
2023/09/13 07:11:30;;;;;;;14.48;6.28;;;;;;;11.33;83.08;101511.88;5048764;28;20060;-51
2023/09/13 07:13:58;;;;;;;13.40;5.57;;;;;;;11.40;83.18;101515.78;5036851;28;20053;-45
2023/09/13 07:16:26;;;;;;;13.20;5.63;;;;;;;11.47;82.94;101510.50;5050934;28;20059;-45
2023/09/13 07:18:55;;;;;;;11.13;5.38;;;;;;;11.51;83.18;101514.25;5048206;28;20056;-50
2023/09/13 07:21:22;;;;;;;11.60;5.45;;;;;;;11.59;83.16;101518.97;5050901;28;20118;-46
2023/09/13 07:23:49;;;;;;;11.30;5.68;;;;;;;11.68;83.29;101520.84;5051236;28;20041;-48
2023/09/13 07:26:16;;;;;;;11.48;6.15;;;;;;;11.75;83.21;101516.47;5050508;28;20103;-45
2023/09/13 07:28:43;;;;;;;10.45;6.30;;;;;;;11.81;83.15;101522.63;5050223;28;20052;-47
2023/09/13 07:31:11;;;;;;;21.65;8.15;;;;;;;11.86;82.96;101514.91;5050764;28;20037;-46
2023/09/13 07:33:39;;;;;;;15.32;7.78;;;;;;;11.92;83.02;101510.81;5053302;28;20045;-48
2023/09/13 07:36:06;;;;;;;114.63;34.78;;;;;;;11.99;83.13;101522.19;5054953;28;20068;-47
2023/09/13 07:38:33;;;;;;;13.88;6.20;;;;;;;12.07;83.01;101526.88;5054027;28;20040;-50
2023/09/13 07:41:00;;;;;;;26.08;13.20;;;;;;;12.16;83.00;101518.50;5054597;28;20064;-50
2023/09/13 07:43:27;;;;;;;15.05;7.63;;;;;;;12.27;82.97;101519.72;5053439;28;20055;-49
2023/09/13 07:45:54;;;;;;;11.18;4.65;;;;;;;12.36;82.84;101517.69;5053037;28;20110;-48
2023/09/13 07:48:22;;;;;;;12.63;5.03;;;;;;;12.44;82.69;101513.22;5052163;28;20037;-48
2023/09/13 07:50:49;;;;;;;9.35;3.95;;;;;;;12.50;82.66;101522.97;5054903;28;20587;-49
2023/09/13 07:53:16;;;;;;;10.70;4.40;;;;;;;12.58;82.74;101520.13;5054387;28;20127;-51
2023/09/13 07:55:45;;;;;;;8.52;4.65;;;;;;;12.64;82.41;101524.31;5054563;28;20061;-50
2023/09/13 07:58:13;;;;;;;10.00;3.75;;;;;;;12.70;82.52;101513.81;5054028;28;20136;-51
2023/09/13 08:00:40;;;;;;;8.65;3.42;;;;;;;12.75;82.49;101528.31;5054413;28;20051;-53
2023/09/13 08:03:07;;;;;;;8.05;3.55;;;;;;;12.77;82.36;101511.28;5051821;28;20091;-48
2023/09/13 08:05:34;;;;;;;12.07;4.10;;;;;;;12.78;82.27;101519.31;5054304;28;20707;-52
2023/09/13 08:08:01;;;;;;;13.13;6.38;;;;;;;12.84;82.33;101529.03;5053214;28;20076;-47
2023/09/13 08:10:27;;;;;;;32.13;13.93;;;;;;;12.92;82.57;101520.97;5054505;28;20401;-50
2023/09/13 08:12:54;;;;;;;12.77;6.20;;;;;;;12.99;82.48;101524.00;5053712;28;20059;-48
2023/09/13 08:15:21;;;;;;;9.93;5.30;;;;;;;13.10;82.47;101531.59;5054837;28;20040;-48
2023/09/13 08:18:04;;;;;;;6.47;3.65;;;;;;;13.27;82.40;101525.84;5053948;28;20072;-49
2023/09/13 08:20:31;;;;;;;12.70;3.65;;;;;;;13.41;82.45;101522.75;5053886;28;20135;-46
2023/09/13 08:22:59;;;;;;;8.23;3.00;;;;;;;13.51;82.08;101524.25;5053541;28;20072;-48
2023/09/13 08:25:27;;;;;;;7.07;3.35;;;;;;;13.61;82.01;101524.59;5054131;28;20056;-48
2023/09/13 08:27:55;;;;;;;8.52;3.15;;;;;;;13.71;82.16;101524.19;5053960;28;20056;-47
2023/09/13 08:30:22;;;;;;;9.88;3.70;;;;;;;13.83;81.81;101526.94;5053762;28;20560;-46
2023/09/13 08:32:49;;;;;;;9.95;3.08;;;;;;;13.94;81.63;101525.31;5053572;28;20045;-46
2023/09/13 08:35:17;;;;;;;9.82;3.67;;;;;;;14.11;82.31;101526.25;5053966;28;20057;-48
2023/09/13 08:37:43;;;;;;;8.70;3.38;;;;;;;14.27;82.84;101529.94;5052492;28;20061;-46
2023/09/13 08:40:12;;;;;;;5.05;3.05;;;;;;;14.40;83.13;101525.97;5044481;28;20045;-47
2023/09/13 08:42:41;;;;;;;9.35;3.38;;;;;;;14.56;83.71;101532.44;5049773;28;20180;-48
2023/09/13 08:45:09;;;;;;;9.20;3.22;;;;;;;14.79;84.42;101527.94;5052241;28;20098;-49
2023/09/13 08:47:41;;;;;;;6.25;3.55;;;;;;;14.99;85.05;101517.72;5051724;28;20549;-47
2023/09/13 08:50:28;;;;;;;5.38;2.67;;;;;;;15.25;85.53;101527.22;5053494;28;20494;-47
2023/09/13 08:52:59;;;;;;;5.97;2.83;;;;;;;15.51;85.86;101523.16;5042443;28;20041;-45
2023/09/13 08:55:27;;;;;;;5.18;3.05;;;;;;;15.72;85.27;101523.69;5053299;28;20049;-51
2023/09/13 08:57:57;;;;;;;5.68;2.60;;;;;;;15.87;84.31;101520.06;5051375;28;20053;-45
2023/09/13 09:00:28;;;;;;;8.48;2.83;;;;;;;16.08;83.26;101520.56;5052512;28;20135;-48
2023/09/13 09:02:58;;;;;;;13.25;4.15;;;;;;;16.44;82.09;101523.00;5053074;28;20453;-44
2023/09/13 09:05:27;;;;;;;5.95;2.50;;;;;;;17.02;80.49;101531.44;5051970;28;20087;-44
2023/09/13 09:07:56;;;;;;;7.28;3.03;;;;;;;17.60;78.51;101535.75;5043746;28;20045;-47
2023/09/13 09:10:24;;;;;;;6.85;2.13;;;;;;;18.17;76.25;101536.66;5052866;28;20486;-44
2023/09/13 09:12:55;;;;;;;5.65;2.40;;;;;;;18.67;74.82;101533.38;5053176;28;20469;-47
2023/09/13 09:15:24;;;;;;;6.82;2.25;;;;;;;19.27;73.14;101538.91;5053095;28;20055;-46
2023/09/13 09:17:54;;;;;;;4.80;2.42;;;;;;;19.72;70.90;101538.59;5051865;28;20087;-49
2023/09/13 09:20:27;;;;;;;4.55;1.98;;;;;;;19.61;69.25;101536.88;5052801;28;20080;-46
2023/09/13 09:22:57;;;;;;;6.80;2.20;;;;;;;19.13;69.81;101527.53;5062345;28;20049;-46
2023/09/13 09:25:25;;;;;;;8.88;2.75;;;;;;;18.66;69.61;101523.38;5052906;28;20044;-47
2023/09/13 09:27:52;;;;;;;4.18;2.40;;;;;;;18.24;69.32;101515.13;5047304;28;20048;-44
2023/09/13 09:30:29;;;;;;;9.23;2.50;;;;;;;17.93;70.72;101511.84;5050673;28;20049;-45
2023/09/13 09:33:05;;;;;;;5.95;2.72;;;;;;;17.77;70.73;101500.00;5052388;28;20053;-45
2023/09/13 09:35:34;;;;;;;6.07;2.10;;;;;;;17.62;70.42;101508.19;5052593;28;20101;-45
2023/09/13 09:38:03;;;;;;;6.07;2.17;;;;;;;17.63;70.21;101495.78;5050206;28;20486;-45
2023/09/13 09:40:38;;;;;;;9.93;2.58;;;;;;;17.96;69.90;101499.91;5053073;28;20102;-48
2023/09/13 09:43:05;;;;;;;5.70;2.03;;;;;;;18.23;68.94;101501.53;5039912;28;20051;-48
2023/09/13 09:45:32;;;;;;;5.10;2.30;;;;;;;18.19;68.66;101500.66;5052273;28;20107;-51
2023/09/13 09:47:59;;;;;;;4.22;2.05;;;;;;;18.10;69.04;101497.31;5048814;28;20146;-46
2023/09/13 09:50:31;;;;;;;2.85;1.38;;;;;;;18.18;69.08;101494.25;5050952;28;20057;-44
2023/09/13 09:52:58;;;;;;;5.75;1.50;;;;;;;18.30;68.72;101496.00;5052486;28;20048;-45
2023/09/13 09:55:25;;;;;;;5.60;1.38;;;;;;;18.60;68.07;101493.22;5051790;28;20132;-46
2023/09/13 09:57:53;;;;;;;2.67;1.35;;;;;;;18.58;67.65;101487.19;5048621;28;20084;-45
2023/09/13 10:00:22;;;;;;;5.22;1.58;;;;;;;18.39;68.30;101490.94;5051815;28;20041;-45
2023/09/13 10:02:50;;;;;;;6.10;2.30;;;;;;;18.21;68.42;101482.25;5050615;28;20067;-47
2023/09/13 10:05:18;;;;;;;2.25;1.20;;;;;;;18.31;68.49;101472.41;5051927;28;20044;-46
2023/09/13 10:07:56;;;;;;;5.20;1.77;;;;;;;18.39;68.40;101467.69;5052078;28;20056;-52
2023/09/13 10:10:30;;;;;;;3.50;1.42;;;;;;;18.71;67.76;101466.94;5050116;28;20037;-44
2023/09/13 10:12:57;;;;;;;2.80;1.60;;;;;;;19.16;66.88;101481.84;5052215;28;20045;-49
2023/09/13 10:15:25;;;;;;;6.32;2.30;;;;;;;19.84;66.02;101472.84;5051941;28;20056;-46
2023/09/13 10:17:55;;;;;;;3.30;1.35;;;;;;;20.62;64.17;101471.31;5049097;28;20509;-45
2023/09/13 10:20:23;;;;;;;4.95;1.73;;;;;;;20.93;63.35;101473.41;5045625;28;20049;-46
2023/09/13 10:22:55;;;;;;;6.80;1.70;;;;;;;21.17;62.85;101472.69;5043845;28;20053;-47
2023/09/13 10:25:24;;;;;;;5.47;1.48;;;;;;;20.94;62.45;101469.38;5049799;28;20439;-45
2023/09/13 10:27:54;;;;;;;8.80;1.58;;;;;;;20.70;62.74;101458.06;5051647;28;20048;-45
2023/09/13 10:30:27;;;;;;;7.80;2.00;;;;;;;20.29;63.05;101465.91;5049597;28;20448;-50
2023/09/13 10:32:57;;;;;;;2.65;1.55;;;;;;;20.00;63.19;101459.28;5050604;28;20072;-45
2023/09/13 10:35:29;;;;;;;4.57;1.15;;;;;;;19.97;63.22;101454.44;5052058;28;20080;-44
2023/09/13 10:38:04;;;;;;;4.40;1.58;;;;;;;19.65;63.49;101459.03;5049459;28;20064;-47
2023/09/13 10:40:41;;;;;;;6.65;1.60;;;;;;;19.27;64.29;101457.50;5038760;28;20576;-45
2023/09/13 10:43:08;;;;;;;7.85;1.67;;;;;;;19.06;64.84;101455.28;5038761;28;20067;-50
2023/09/13 10:45:40;;;;;;;3.38;1.27;;;;;;;18.79;65.16;101451.81;5051389;28;20056;-50
2023/09/13 10:48:08;;;;;;;7.20;1.75;;;;;;;18.53;65.34;101459.50;5051919;28;20103;-46
2023/09/13 10:50:37;;;;;;;5.60;1.90;;;;;;;18.27;65.54;101449.91;5048258;28;20044;-47
2023/09/13 10:53:04;;;;;;;5.95;1.88;;;;;;;18.07;65.78;101451.25;5051403;28;20397;-45
2023/09/13 10:55:33;;;;;;;6.28;1.98;;;;;;;17.94;65.91;101438.66;5050903;28;20134;-47
2023/09/13 10:58:03;;;;;;;3.97;1.30;;;;;;;17.89;66.30;101435.38;5051186;28;20128;-45
2023/09/13 11:00:33;;;;;;;5.72;1.45;;;;;;;17.83;66.41;101429.28;5036016;28;20056;-47
2023/09/13 11:03:01;;;;;;;3.67;1.15;;;;;;;17.80;66.53;101426.41;5050952;28;20487;-46
2023/09/13 11:05:29;;;;;;;5.50;1.50;;;;;;;17.73;66.58;101415.13;5051414;28;20041;-46
2023/09/13 11:07:56;;;;;;;7.35;1.77;;;;;;;17.71;66.86;101412.72;5050581;28;20045;-46
2023/09/13 11:10:29;;;;;;;4.72;1.50;;;;;;;17.73;67.06;101415.94;5050457;28;20045;-44
2023/09/13 11:12:56;;;;;;;7.32;1.48;;;;;;;17.74;67.17;101413.94;5051223;28;20095;-46
2023/09/13 11:15:25;;;;;;;5.50;1.80;;;;;;;17.79;67.29;101403.19;5050064;28;20041;-47
2023/09/13 11:17:56;;;;;;;7.78;1.85;;;;;;;17.88;67.60;101389.72;5051013;28;20037;-49
2023/09/13 11:20:38;;;;;;;5.43;1.67;;;;;;;18.00;67.40;101386.69;5038028;28;20140;-45
2023/09/13 11:23:43;;;;;;;8.75;1.75;;;;;;;18.21;67.57;101391.78;5047166;28;20048;-45
2023/09/13 11:26:56;;;;;;;4.45;2.05;;;;;;;18.40;67.46;101380.38;5050970;28;20574;-49
2023/09/13 11:29:27;;;;;;;11.65;2.22;;;;;;;18.57;67.77;101388.22;5044201;28;20136;-47
2023/09/13 11:31:59;;;;;;;6.00;1.90;;;;;;;18.67;67.56;101401.56;5049142;28;20080;-47